createdAt,value
2023-04-13T00:01:29.860Z,1.8
2023-04-13T00:07:22.997Z,1.6
2023-04-13T00:13:15.672Z,1.3
2023-04-13T00:19:08.253Z,1.3
2023-04-13T00:24:58.908Z,1.4
2023-04-13T00:30:50.540Z,1.2
2023-04-13T00:36:42.588Z,1.2
2023-04-13T00:42:33.503Z,1.3
2023-04-13T00:48:25.698Z,1.5
2023-04-13T00:54:17.698Z,1.3
2023-04-13T01:00:08.421Z,1.3
2023-04-13T01:06:02.284Z,1.3
2023-04-13T01:11:37.873Z,1.4
2023-04-13T01:24:15.163Z,1.4
2023-04-13T01:30:06.891Z,1.3
2023-04-13T01:35:43.275Z,1.2
2023-04-13T01:41:34.979Z,1.3
2023-04-13T01:47:26.264Z,1.4
2023-04-13T01:53:02.247Z,1.4
2023-04-13T01:58:53.911Z,1.4
2023-04-13T02:04:48.162Z,1.3
2023-04-13T02:10:39.147Z,1.6
2023-04-13T02:16:30.618Z,1.5
2023-04-13T02:22:21.975Z,1.2
2023-04-13T02:28:13.648Z,1.2
2023-04-13T02:34:05.776Z,1.1
2023-04-13T02:39:57.241Z,0.9
2023-04-13T02:45:47.995Z,0.8
2023-04-13T02:51:39.602Z,0.5
2023-04-13T02:57:31.056Z,0.4
2023-04-13T03:03:22.906Z,0.7
2023-04-13T03:09:15.611Z,0.6
2023-04-13T03:15:08.744Z,0.4
2023-04-13T03:20:44.215Z,0.8
2023-04-13T03:26:36.663Z,0.9
2023-04-13T03:32:28.581Z,0.5
2023-04-13T03:38:20.624Z,0.3
2023-04-13T03:44:13.112Z,0.2
2023-04-13T03:49:49.617Z,0.1
2023-04-13T03:55:41.236Z,-0.2
2023-04-13T04:01:32.911Z,-0.1
2023-04-13T04:07:26.450Z,0.3
2023-04-13T04:13:20.837Z,0.4
2023-04-13T04:19:15.584Z,0.6
2023-04-13T04:25:07.437Z,0.6
2023-04-13T04:30:58.628Z,0.9
2023-04-13T04:36:50.549Z,1.3
2023-04-13T04:42:43.265Z,1.5
2023-04-13T04:48:19.557Z,1.7
2023-04-13T04:53:55.564Z,1.9
2023-04-13T04:59:47.777Z,2.1
2023-04-13T05:05:24.444Z,2.5
2023-04-13T05:11:16.630Z,2.9
2023-04-13T05:17:08.693Z,3.2
2023-04-13T05:23:02.305Z,3.8
2023-04-13T05:28:54.036Z,4.1
2023-04-13T05:34:48.620Z,4.7
2023-04-13T05:40:39.207Z,5.5
2023-04-13T05:46:32.269Z,6.3
2023-04-13T05:52:24.485Z,6
2023-04-13T05:58:14.860Z,6.9
2023-04-13T06:04:11.157Z,6.9
2023-04-13T06:10:03.782Z,6.9
2023-04-13T06:15:55.296Z,7.6
2023-04-13T06:21:48.422Z,8.4
2023-04-13T06:27:40.614Z,8.5
2023-04-13T06:33:32.547Z,7.8
2023-04-13T06:39:25.973Z,8.8
2023-04-13T06:45:14.475Z,9.6
2023-04-13T06:51:06.009Z,10
2023-04-13T06:56:57.530Z,11.2
2023-04-13T07:03:03.980Z,10.8
2023-04-13T07:08:58.887Z,11.8
2023-04-13T07:14:50.925Z,12.2
2023-04-13T07:20:28.103Z,12
2023-04-13T07:26:18.470Z,13.1
2023-04-13T07:32:10.581Z,12.9
2023-04-13T07:38:09.292Z,12.6
2023-04-13T07:44:00.726Z,13.8
2023-04-13T07:49:52.984Z,13.6
2023-04-13T07:55:44.800Z,13.1
2023-04-13T08:01:35.455Z,14.2
2023-04-13T08:07:32.064Z,14.6
2023-04-13T08:13:24.138Z,14.3
2023-04-13T08:19:03.105Z,15.8
2023-04-13T08:24:57.014Z,16
2023-04-13T08:30:50.016Z,15.8
2023-04-13T08:36:41.794Z,16.6
2023-04-13T08:42:35.237Z,16.5
2023-04-13T08:48:27.090Z,17.6
2023-04-13T08:54:12.655Z,17.7
2023-04-13T09:00:11.608Z,17.9
2023-04-13T09:06:21.067Z,18.9
2023-04-13T09:12:12.061Z,18.3
2023-04-13T09:17:48.336Z,17.3
2023-04-13T09:23:39.653Z,18.6
2023-04-13T09:32:00.099Z,19.1
2023-04-13T09:37:44.787Z,19.5
2023-04-13T09:42:51.099Z,20.8
2023-04-13T09:48:11.182Z,21.2
2023-04-13T09:53:48.712Z,20.9
2023-04-13T10:05:17.207Z,21.5
2023-04-13T10:11:06.420Z,21.1
2023-04-13T10:17:07.113Z,22.6
2023-04-13T10:23:01.463Z,21.3
2023-04-13T10:29:09.974Z,20
2023-04-13T10:34:50.455Z,20.2
2023-04-13T10:40:45.999Z,22.4
2023-04-13T10:46:40.356Z,23
2023-04-13T10:52:01.706Z,23.4
2023-04-13T10:57:40.289Z,23.3
2023-04-13T11:04:03.499Z,22.6
2023-04-13T11:09:25.725Z,21.6
2023-04-13T11:15:11.787Z,22.8
2023-04-13T11:20:48.210Z,22.1
2023-04-13T11:26:28.694Z,23.6
2023-04-13T11:31:48.708Z,23.1
2023-04-13T11:37:25.288Z,21.3
2023-04-13T11:43:15.506Z,22.1
2023-04-13T11:49:07.431Z,22.4
2023-04-13T11:55:07.680Z,21.3
2023-04-13T12:01:02.251Z,21.2
2023-04-13T12:07:48.517Z,22.7
2023-04-13T12:16:08.193Z,22.2
2023-04-13T12:23:22.645Z,23.3
2023-04-13T12:29:38.965Z,23.3
2023-04-13T12:35:30.274Z,22.2
2023-04-13T12:41:23.924Z,23.1
2023-04-13T12:47:15.351Z,23
2023-04-13T12:53:07.849Z,24.4
2023-04-13T12:58:59.893Z,22.5
2023-04-13T13:05:00.861Z,23.1
2023-04-13T13:11:03.082Z,22.9
2023-04-13T13:16:55.872Z,22.5
2023-04-13T13:23:02.392Z,22.9
2023-04-13T13:30:15.202Z,21.9
2023-04-13T13:36:07.802Z,21.3
2023-04-13T13:41:44.839Z,21.4
2023-04-13T13:47:22.230Z,21.4
2023-04-13T13:53:32.094Z,21.1
2023-04-13T13:59:22.984Z,21.4
2023-04-13T14:04:59.937Z,22.3
2023-04-13T14:10:51.925Z,22.8
2023-04-13T14:16:38.749Z,22.1
2023-04-13T14:22:41.805Z,22.1
2023-04-13T14:28:33.225Z,23.4
2023-04-13T14:34:24.829Z,22.4
2023-04-13T14:40:18.306Z,21.8
2023-04-13T14:46:10.393Z,21.3
2023-04-13T14:52:02.998Z,21.9
2023-04-13T14:57:54.618Z,21.3
2023-04-13T15:03:48.855Z,20.9
2023-04-13T15:09:43.734Z,20.8
2023-04-13T15:15:37.293Z,20.8
2023-04-13T15:21:30.391Z,20.8
2023-04-13T15:27:22.182Z,20.9
2023-04-13T15:33:14.793Z,20.7
2023-04-13T15:39:07.629Z,20.6
2023-04-13T15:44:58.921Z,20.6
2023-04-13T15:50:51.287Z,21.8
2023-04-13T15:56:43.223Z,21.5
2023-04-13T16:02:35.515Z,21.6
2023-04-13T16:08:31.146Z,21.9
2023-04-13T16:14:37.651Z,21.6
2023-04-13T16:20:30.297Z,21.6
2023-04-13T16:26:22.588Z,20.5
2023-04-13T16:32:14.376Z,19.9
2023-04-13T16:38:22.609Z,19.8
2023-04-13T16:44:15.483Z,19.5
2023-04-13T16:50:08.385Z,19.3
2023-04-13T16:55:45.127Z,19.1
2023-04-13T17:01:39.597Z,18.9
2023-04-13T17:07:48.872Z,18.8
2023-04-13T17:19:02.067Z,18.3
2023-04-13T17:24:54.808Z,18.3
2023-04-13T17:30:46.710Z,18.3
2023-04-13T17:36:42.114Z,18.2
2023-04-13T17:42:34.711Z,18.3
2023-04-13T17:48:27.082Z,18.3
2023-04-13T17:54:19.551Z,18.2
2023-04-13T18:00:13.474Z,18.1
2023-04-13T18:05:53.899Z,18.1
2023-04-13T18:11:47.187Z,18.1
2023-04-13T18:17:24.451Z,17.9
2023-04-13T18:22:46.980Z,18.2
2023-04-13T18:28:08.208Z,17.9
2023-04-13T18:33:45.244Z,18
2023-04-13T18:39:38.580Z,17.9
2023-04-13T18:44:59.609Z,17.8
2023-04-13T18:50:36.456Z,17.8
2023-04-13T18:56:28.363Z,17.8
2023-04-13T19:02:05.369Z,17.8
2023-04-13T19:07:47.381Z,17.6
2023-04-13T19:13:39.651Z,17.6
2023-04-13T19:19:31.798Z,17.2
2023-04-13T19:25:25.598Z,16.3
2023-04-13T19:31:18.364Z,15.6
2023-04-13T19:36:56.087Z,15.2
2023-04-13T19:42:48.801Z,14.8
2023-04-13T19:48:41.530Z,14.9
2023-04-13T19:54:33.832Z,15.1
2023-04-13T20:00:26.248Z,14.7
2023-04-13T20:06:20.616Z,14.6
2023-04-13T20:12:11.948Z,14.7
2023-04-13T20:18:04.613Z,14.7
2023-04-13T20:23:57.203Z,14.7
2023-04-13T20:29:51.394Z,14.5
2023-04-13T20:35:44.788Z,14.3
2023-04-13T20:41:21.320Z,14.3
2023-04-13T20:47:13.452Z,14.1
2023-04-13T20:53:51.796Z,13.8
2023-04-13T20:59:43.157Z,13.5
2023-04-13T21:05:36.717Z,13.2
2023-04-13T21:11:29.252Z,12.8
2023-04-13T21:17:22.183Z,12.6
2023-04-13T21:23:16.877Z,12.4
2023-04-13T21:29:08.802Z,12.1
2023-04-13T21:34:44.745Z,11.9
2023-04-13T21:40:30.068Z,11.8
2023-04-13T21:46:30.008Z,12
2023-04-13T21:52:21.167Z,11.6
2023-04-13T21:58:15.361Z,11.3
2023-04-13T22:04:09.536Z,11.4
2023-04-13T22:10:15.231Z,10.9
2023-04-13T22:16:06.847Z,11.1
2023-04-13T22:22:01.208Z,11.1
2023-04-13T22:27:36.534Z,10.9
2023-04-13T22:33:29.486Z,10.7
2023-04-13T22:39:21.810Z,10.8
2023-04-13T22:45:13.062Z,11
2023-04-13T22:51:04.265Z,10.6
2023-04-13T22:56:56.376Z,10.6
2023-04-13T23:02:32.979Z,10.4
2023-04-13T23:08:29.537Z,10.4
2023-04-13T23:14:06.381Z,9.9
2023-04-13T23:19:43.129Z,10.3
2023-04-13T23:25:35.425Z,10.1
2023-04-13T23:31:27.357Z,10
2023-04-13T23:37:19.344Z,10
2023-04-13T23:43:10.276Z,10.3
2023-04-13T23:49:02.725Z,10.6
2023-04-13T23:54:54.259Z,10.7
